createdAt,value
2023-05-06T07:20:11.213Z,72.51
2023-05-06T07:23:14.482Z,70.79
2023-05-06T07:26:17.097Z,70.58
2023-05-06T07:29:20.671Z,69.85
2023-05-06T07:32:23.557Z,70.78
2023-05-06T07:35:26.493Z,68.21
2023-05-06T07:38:29.052Z,68.90
2023-05-06T07:41:32.073Z,69.22
2023-05-06T07:44:36.441Z,71.62
2023-05-06T07:47:40.173Z,70.35
2023-05-06T07:50:43.100Z,68.79
2023-05-06T07:53:46.142Z,72.56
2023-05-06T07:56:49.373Z,70.55
2023-05-06T07:59:53.053Z,67.21
2023-05-06T08:02:55.919Z,67.17
2023-05-06T08:05:58.934Z,69.52
2023-05-06T08:09:01.951Z,65.31
2023-05-06T08:12:05.898Z,64.26
2023-05-06T08:15:09.506Z,62.05
2023-05-06T08:18:21.746Z,64.00
2023-05-06T08:21:25.278Z,60.86
2023-05-06T08:24:28.622Z,61.99
2023-05-06T08:27:31.542Z,60.83
2023-05-06T08:30:34.649Z,58.92
2023-05-06T08:33:37.522Z,57.86
2023-05-06T08:36:40.446Z,60.33
2023-05-06T08:39:43.254Z,58.18
2023-05-06T08:42:48.030Z,61.65
2023-05-06T08:45:50.850Z,56.83
2023-05-06T08:48:53.863Z,57.73
2023-05-06T08:51:59.491Z,55.84
2023-05-06T08:55:05.255Z,56.64
2023-05-06T08:58:10.948Z,54.23
2023-05-06T09:01:15.142Z,53.11
2023-05-06T09:04:18.446Z,57.54
2023-05-06T09:07:23.022Z,60.08
2023-05-06T09:10:32.096Z,58.31
2023-05-06T09:13:35.019Z,56.89
2023-05-06T09:16:39.193Z,59.74
2023-05-06T09:19:42.298Z,53.90
2023-05-06T09:22:44.908Z,52.93
2023-05-06T09:25:49.758Z,55.50
2023-05-06T09:28:52.522Z,52.23
2023-05-06T09:31:56.405Z,53.86
2023-05-06T09:34:59.461Z,50.95
2023-05-06T09:38:02.819Z,50.40
2023-05-06T09:41:07.253Z,47.32
2023-05-06T09:44:11.539Z,46.53
2023-05-06T09:47:15.076Z,44.58
2023-05-06T09:50:18.048Z,46.24
2023-05-06T09:53:22.223Z,44.25
2023-05-06T09:56:26.158Z,45.02
2023-05-06T09:59:30.141Z,42.46
2023-05-06T10:02:33.557Z,42.05
2023-05-06T10:05:37.732Z,39.81
2023-05-06T10:08:41.252Z,41.01
2023-05-06T10:11:45.538Z,36.75
2023-05-06T10:14:48.322Z,40.07
2023-05-06T10:17:52.799Z,38.20
2023-05-06T10:20:56.179Z,40.61
2023-05-06T10:24:11.696Z,36.43
2023-05-06T10:27:18.671Z,37.17
2023-05-06T10:30:22.483Z,35.63
2023-05-06T10:33:26.443Z,38.98
2023-05-06T10:36:33.611Z,38.02
2023-05-06T10:39:36.241Z,37.15
